Terminal Aerodrome Forecast
Issued by NWS

Home | Current Version | Previous Version | Text Only | Print | Product List | Glossary On
Versions: 1 2 3 4 5 6 7 8 9 10 11 12
000
FTUS45 KREV 151720
TAFMMH
TAF
KMMH 151720Z 1518/1618 29005KT P6SM SKC
     FM152100 22007KT P6SM BKN250
     FM160000 25011G20KT P6SM OVC160
     FM161500 28020G35KT P6SM SCT080 SCT120=

USA.gov is the U.S. government's official web portal to all federal, state and local government web resources and services.